Rechercher aéroport 
image banner adimage banner adimage banner ad
image banner ad

22CA - Commodore Center

Situé à Sausalito, United States

ICAO - 22CA, IATA -

Données fournies par Airmate  

Information générale

Coordonnées: N37°52'48" W122°30'49"
Élévation : feet MSL.
Variation magnétique : 16° East
Voir autres Aéroports à California

Données opérationnelles

Special qualification required
Heure actuelle UTC:
Heure actuelle locale:
Météo à : KDVO - Gnoss Field ( 30 km )
METAR: KDVO 251335Z AUTO 33004KT 10SM OVC009 12/11 A2997 RMK AO2
Voir NOTAMs / SUP AIP / TFR affectant cet aéroport [VIEW]
Fréquences de communication: [VIEW]

Pistes:

Identifiant RWYQFULongueur (ft)Largeur (ft)SurfaceLDA (ft)
11W100002400WATER
29W100002400WATER

Coordonnées de l'aéroport

Adresse: Sausalito United States

Vue satellite de 22CA